sensor_id;sensor_type;location;lat;lon;timestamp;P1;durP1;ratioP1;P2;durP2;ratioP2
27013;SDS011;14556;52.222;4.510;2023-06-14T00:00:32;3.10;;;2.60;;
27013;SDS011;14556;52.222;4.510;2023-06-14T00:03:01;3.43;;;2.20;;
27013;SDS011;14556;52.222;4.510;2023-06-14T00:05:30;4.87;;;2.20;;
27013;SDS011;14556;52.222;4.510;2023-06-14T00:08:04;2.60;;;2.40;;
27013;SDS011;14556;52.222;4.510;2023-06-14T00:10:33;5.07;;;2.53;;
27013;SDS011;14556;52.222;4.510;2023-06-14T00:13:02;3.03;;;2.53;;
27013;SDS011;14556;52.222;4.510;2023-06-14T00:15:30;3.83;;;2.37;;
27013;SDS011;14556;52.222;4.510;2023-06-14T00:17:57;4.17;;;2.50;;
27013;SDS011;14556;52.222;4.510;2023-06-14T00:20:27;6.90;;;2.57;;
27013;SDS011;14556;52.222;4.510;2023-06-14T00:22:55;4.73;;;2.67;;
27013;SDS011;14556;52.222;4.510;2023-06-14T00:25:24;3.37;;;2.00;;
27013;SDS011;14556;52.222;4.510;2023-06-14T00:27:55;3.20;;;2.40;;
27013;SDS011;14556;52.222;4.510;2023-06-14T00:30:23;3.20;;;2.20;;
27013;SDS011;14556;52.222;4.510;2023-06-14T00:32:50;4.27;;;2.03;;
27013;SDS011;14556;52.222;4.510;2023-06-14T00:35:18;8.43;;;2.63;;
27013;SDS011;14556;52.222;4.510;2023-06-14T00:37:44;5.20;;;2.70;;
27013;SDS011;14556;52.222;4.510;2023-06-14T00:40:11;5.23;;;2.37;;
27013;SDS011;14556;52.222;4.510;2023-06-14T00:42:38;4.83;;;2.30;;
27013;SDS011;14556;52.222;4.510;2023-06-14T00:45:05;4.17;;;2.30;;
27013;SDS011;14556;52.222;4.510;2023-06-14T00:47:31;4.77;;;2.87;;
27013;SDS011;14556;52.222;4.510;2023-06-14T00:49:58;4.37;;;2.23;;
27013;SDS011;14556;52.222;4.510;2023-06-14T00:52:26;3.43;;;2.13;;
27013;SDS011;14556;52.222;4.510;2023-06-14T00:54:54;2.63;;;2.10;;
27013;SDS011;14556;52.222;4.510;2023-06-14T00:57:20;4.30;;;2.27;;
27013;SDS011;14556;52.222;4.510;2023-06-14T00:59:48;5.73;;;2.30;;
27013;SDS011;14556;52.222;4.510;2023-06-14T01:02:15;3.47;;;2.20;;
27013;SDS011;14556;52.222;4.510;2023-06-14T01:04:43;3.60;;;2.20;;
27013;SDS011;14556;52.222;4.510;2023-06-14T01:07:15;4.13;;;1.97;;
27013;SDS011;14556;52.222;4.510;2023-06-14T01:10:05;5.00;;;1.90;;
27013;SDS011;14556;52.222;4.510;2023-06-14T01:12:57;2.47;;;2.27;;
27013;SDS011;14556;52.222;4.510;2023-06-14T01:15:30;3.17;;;2.13;;
27013;SDS011;14556;52.222;4.510;2023-06-14T01:17:57;3.80;;;1.67;;
27013;SDS011;14556;52.222;4.510;2023-06-14T01:20:30;4.43;;;1.77;;
27013;SDS011;14556;52.222;4.510;2023-06-14T01:22:58;4.40;;;1.97;;
27013;SDS011;14556;52.222;4.510;2023-06-14T01:25:26;3.60;;;1.80;;
27013;SDS011;14556;52.222;4.510;2023-06-14T01:27:53;2.33;;;2.03;;
27013;SDS011;14556;52.222;4.510;2023-06-14T01:30:24;3.97;;;2.63;;
27013;SDS011;14556;52.222;4.510;2023-06-14T01:32:54;3.07;;;2.10;;
27013;SDS011;14556;52.222;4.510;2023-06-14T01:35:22;2.60;;;1.90;;
27013;SDS011;14556;52.222;4.510;2023-06-14T01:37:49;7.63;;;2.47;;
27013;SDS011;14556;52.222;4.510;2023-06-14T01:40:18;6.37;;;2.10;;
27013;SDS011;14556;52.222;4.510;2023-06-14T01:42:46;3.80;;;1.77;;
27013;SDS011;14556;52.222;4.510;2023-06-14T01:45:15;2.83;;;1.90;;
27013;SDS011;14556;52.222;4.510;2023-06-14T01:47:43;1.83;;;1.63;;
27013;SDS011;14556;52.222;4.510;2023-06-14T01:50:11;3.07;;;1.90;;
27013;SDS011;14556;52.222;4.510;2023-06-14T01:52:38;2.57;;;1.87;;
27013;SDS011;14556;52.222;4.510;2023-06-14T01:55:05;5.80;;;2.23;;
27013;SDS011;14556;52.222;4.510;2023-06-14T01:57:32;3.60;;;2.20;;
27013;SDS011;14556;52.222;4.510;2023-06-14T01:59:58;3.73;;;2.20;;
27013;SDS011;14556;52.222;4.510;2023-06-14T02:02:25;3.63;;;1.60;;
27013;SDS011;14556;52.222;4.510;2023-06-14T02:04:52;2.50;;;1.97;;
27013;SDS011;14556;52.222;4.510;2023-06-14T02:07:18;3.67;;;1.90;;
27013;SDS011;14556;52.222;4.510;2023-06-14T02:09:45;3.83;;;1.90;;
27013;SDS011;14556;52.222;4.510;2023-06-14T02:12:11;2.87;;;1.87;;
27013;SDS011;14556;52.222;4.510;2023-06-14T02:14:38;2.77;;;1.87;;
27013;SDS011;14556;52.222;4.510;2023-06-14T02:17:05;2.27;;;1.97;;
27013;SDS011;14556;52.222;4.510;2023-06-14T02:19:32;5.50;;;1.80;;
27013;SDS011;14556;52.222;4.510;2023-06-14T02:21:59;2.20;;;2.00;;
27013;SDS011;14556;52.222;4.510;2023-06-14T02:24:26;3.27;;;2.10;;
27013;SDS011;14556;52.222;4.510;2023-06-14T02:26:53;7.20;;;1.93;;
27013;SDS011;14556;52.222;4.510;2023-06-14T02:29:19;4.60;;;1.87;;
27013;SDS011;14556;52.222;4.510;2023-06-14T02:31:45;4.07;;;1.97;;
27013;SDS011;14556;52.222;4.510;2023-06-14T02:34:14;3.40;;;1.67;;
27013;SDS011;14556;52.222;4.510;2023-06-14T02:36:43;3.77;;;2.10;;
27013;SDS011;14556;52.222;4.510;2023-06-14T02:39:11;2.63;;;1.70;;
27013;SDS011;14556;52.222;4.510;2023-06-14T02:41:38;3.50;;;1.73;;
27013;SDS011;14556;52.222;4.510;2023-06-14T02:44:05;4.13;;;2.10;;
27013;SDS011;14556;52.222;4.510;2023-06-14T02:46:32;3.40;;;1.73;;
27013;SDS011;14556;52.222;4.510;2023-06-14T02:48:59;6.00;;;1.83;;
27013;SDS011;14556;52.222;4.510;2023-06-14T02:51:26;3.23;;;1.97;;
27013;SDS011;14556;52.222;4.510;2023-06-14T02:53:52;4.00;;;2.07;;
27013;SDS011;14556;52.222;4.510;2023-06-14T02:56:19;3.83;;;2.10;;
27013;SDS011;14556;52.222;4.510;2023-06-14T02:58:45;2.63;;;2.00;;
27013;SDS011;14556;52.222;4.510;2023-06-14T03:01:12;3.67;;;1.80;;
27013;SDS011;14556;52.222;4.510;2023-06-14T03:03:40;3.57;;;1.90;;
27013;SDS011;14556;52.222;4.510;2023-06-14T03:06:06;2.70;;;2.10;;
27013;SDS011;14556;52.222;4.510;2023-06-14T03:08:34;3.27;;;1.70;;
27013;SDS011;14556;52.222;4.510;2023-06-14T03:11:05;2.80;;;1.90;;
27013;SDS011;14556;52.222;4.510;2023-06-14T03:13:32;2.43;;;1.60;;
27013;SDS011;14556;52.222;4.510;2023-06-14T03:16:01;2.93;;;1.80;;
27013;SDS011;14556;52.222;4.510;2023-06-14T03:18:30;3.40;;;1.77;;
27013;SDS011;14556;52.222;4.510;2023-06-14T03:21:02;4.73;;;1.73;;
27013;SDS011;14556;52.222;4.510;2023-06-14T03:23:29;4.87;;;1.87;;
27013;SDS011;14556;52.222;4.510;2023-06-14T03:25:56;2.73;;;1.83;;
27013;SDS011;14556;52.222;4.510;2023-06-14T03:28:22;4.03;;;2.03;;
27013;SDS011;14556;52.222;4.510;2023-06-14T03:30:49;3.53;;;2.00;;
27013;SDS011;14556;52.222;4.510;2023-06-14T03:33:16;3.63;;;2.00;;
27013;SDS011;14556;52.222;4.510;2023-06-14T03:35:43;3.47;;;1.63;;
27013;SDS011;14556;52.222;4.510;2023-06-14T03:38:10;3.83;;;2.10;;
27013;SDS011;14556;52.222;4.510;2023-06-14T03:40:36;4.90;;;1.93;;
27013;SDS011;14556;52.222;4.510;2023-06-14T03:43:03;4.67;;;2.10;;
27013;SDS011;14556;52.222;4.510;2023-06-14T03:45:29;3.83;;;2.07;;
27013;SDS011;14556;52.222;4.510;2023-06-14T03:47:56;5.17;;;1.97;;
27013;SDS011;14556;52.222;4.510;2023-06-14T03:50:23;4.30;;;1.90;;
27013;SDS011;14556;52.222;4.510;2023-06-14T03:52:49;2.73;;;2.23;;
27013;SDS011;14556;52.222;4.510;2023-06-14T03:55:16;5.90;;;1.70;;
27013;SDS011;14556;52.222;4.510;2023-06-14T03:57:46;3.20;;;1.77;;
27013;SDS011;14556;52.222;4.510;2023-06-14T04:00:12;5.03;;;1.83;;
27013;SDS011;14556;52.222;4.510;2023-06-14T04:02:39;4.23;;;1.63;;
27013;SDS011;14556;52.222;4.510;2023-06-14T04:05:06;3.30;;;1.70;;
27013;SDS011;14556;52.222;4.510;2023-06-14T04:07:35;4.97;;;1.97;;
27013;SDS011;14556;52.222;4.510;2023-06-14T04:10:06;2.47;;;1.33;;
27013;SDS011;14556;52.222;4.510;2023-06-14T04:12:36;4.10;;;1.97;;
27013;SDS011;14556;52.222;4.510;2023-06-14T04:15:03;5.63;;;1.93;;
27013;SDS011;14556;52.222;4.510;2023-06-14T04:17:46;3.33;;;2.30;;
27013;SDS011;14556;52.222;4.510;2023-06-14T04:20:12;2.57;;;1.70;;
27013;SDS011;14556;52.222;4.510;2023-06-14T04:22:39;1.90;;;1.50;;
27013;SDS011;14556;52.222;4.510;2023-06-14T04:25:07;3.07;;;1.87;;
27013;SDS011;14556;52.222;4.510;2023-06-14T04:27:34;2.17;;;1.60;;
27013;SDS011;14556;52.222;4.510;2023-06-14T04:30:02;3.13;;;1.80;;
27013;SDS011;14556;52.222;4.510;2023-06-14T04:32:29;2.10;;;1.53;;
27013;SDS011;14556;52.222;4.510;2023-06-14T04:35:00;2.77;;;1.60;;
27013;SDS011;14556;52.222;4.510;2023-06-14T04:37:30;3.40;;;1.93;;
27013;SDS011;14556;52.222;4.510;2023-06-14T04:39:56;4.87;;;1.67;;
27013;SDS011;14556;52.222;4.510;2023-06-14T04:42:24;3.20;;;1.60;;
27013;SDS011;14556;52.222;4.510;2023-06-14T04:44:51;1.93;;;1.77;;
27013;SDS011;14556;52.222;4.510;2023-06-14T04:47:21;3.33;;;1.93;;
27013;SDS011;14556;52.222;4.510;2023-06-14T04:49:51;3.10;;;1.60;;
27013;SDS011;14556;52.222;4.510;2023-06-14T04:52:18;2.30;;;1.50;;
27013;SDS011;14556;52.222;4.510;2023-06-14T04:54:47;5.90;;;2.00;;
27013;SDS011;14556;52.222;4.510;2023-06-14T04:57:14;2.90;;;2.00;;
27013;SDS011;14556;52.222;4.510;2023-06-14T04:59:43;3.00;;;1.80;;
27013;SDS011;14556;52.222;4.510;2023-06-14T05:02:10;2.67;;;2.00;;
27013;SDS011;14556;52.222;4.510;2023-06-14T05:04:38;3.27;;;1.90;;
27013;SDS011;14556;52.222;4.510;2023-06-14T05:07:07;2.93;;;1.90;;
27013;SDS011;14556;52.222;4.510;2023-06-14T05:09:35;2.67;;;1.63;;
27013;SDS011;14556;52.222;4.510;2023-06-14T05:12:02;3.00;;;1.60;;
27013;SDS011;14556;52.222;4.510;2023-06-14T05:14:29;3.27;;;1.60;;
27013;SDS011;14556;52.222;4.510;2023-06-14T05:16:56;2.93;;;1.70;;
27013;SDS011;14556;52.222;4.510;2023-06-14T05:19:23;2.53;;;1.77;;
27013;SDS011;14556;52.222;4.510;2023-06-14T05:21:50;4.03;;;1.93;;
27013;SDS011;14556;52.222;4.510;2023-06-14T05:24:16;2.07;;;1.70;;
27013;SDS011;14556;52.222;4.510;2023-06-14T05:26:46;2.67;;;1.90;;
27013;SDS011;14556;52.222;4.510;2023-06-14T05:29:13;2.23;;;1.67;;
27013;SDS011;14556;52.222;4.510;2023-06-14T05:31:39;3.57;;;1.80;;
27013;SDS011;14556;52.222;4.510;2023-06-14T05:34:06;2.90;;;1.97;;
27013;SDS011;14556;52.222;4.510;2023-06-14T05:36:32;2.70;;;1.90;;
27013;SDS011;14556;52.222;4.510;2023-06-14T05:38:59;2.53;;;1.83;;
27013;SDS011;14556;52.222;4.510;2023-06-14T05:41:26;3.57;;;1.63;;
27013;SDS011;14556;52.222;4.510;2023-06-14T05:43:54;2.83;;;1.70;;
27013;SDS011;14556;52.222;4.510;2023-06-14T05:46:21;5.10;;;1.87;;
27013;SDS011;14556;52.222;4.510;2023-06-14T05:48:51;2.53;;;2.33;;
27013;SDS011;14556;52.222;4.510;2023-06-14T05:51:18;2.47;;;1.60;;
27013;SDS011;14556;52.222;4.510;2023-06-14T05:53:45;1.90;;;1.70;;
27013;SDS011;14556;52.222;4.510;2023-06-14T05:56:15;2.70;;;1.93;;
27013;SDS011;14556;52.222;4.510;2023-06-14T05:58:46;7.10;;;1.77;;
27013;SDS011;14556;52.222;4.510;2023-06-14T06:01:13;3.20;;;1.50;;
27013;SDS011;14556;52.222;4.510;2023-06-14T06:03:39;2.53;;;1.43;;
27013;SDS011;14556;52.222;4.510;2023-06-14T06:06:08;2.83;;;1.33;;
27013;SDS011;14556;52.222;4.510;2023-06-14T06:08:34;2.57;;;1.80;;
27013;SDS011;14556;52.222;4.510;2023-06-14T06:11:01;3.60;;;2.00;;
27013;SDS011;14556;52.222;4.510;2023-06-14T06:13:28;4.37;;;1.93;;
27013;SDS011;14556;52.222;4.510;2023-06-14T06:15:54;2.40;;;1.47;;
27013;SDS011;14556;52.222;4.510;2023-06-14T06:18:22;2.77;;;1.60;;
27013;SDS011;14556;52.222;4.510;2023-06-14T06:20:49;2.17;;;1.47;;
27013;SDS011;14556;52.222;4.510;2023-06-14T06:23:15;2.90;;;1.90;;
27013;SDS011;14556;52.222;4.510;2023-06-14T06:25:42;2.00;;;1.57;;
27013;SDS011;14556;52.222;4.510;2023-06-14T06:28:09;1.83;;;1.57;;
27013;SDS011;14556;52.222;4.510;2023-06-14T06:30:36;2.70;;;1.73;;
27013;SDS011;14556;52.222;4.510;2023-06-14T06:33:02;3.90;;;2.00;;
27013;SDS011;14556;52.222;4.510;2023-06-14T06:35:29;4.47;;;1.90;;
27013;SDS011;14556;52.222;4.510;2023-06-14T06:37:56;1.67;;;1.43;;
27013;SDS011;14556;52.222;4.510;2023-06-14T06:40:23;4.90;;;1.80;;
27013;SDS011;14556;52.222;4.510;2023-06-14T06:42:50;3.53;;;1.97;;
27013;SDS011;14556;52.222;4.510;2023-06-14T06:45:16;4.00;;;1.70;;
27013;SDS011;14556;52.222;4.510;2023-06-14T06:47:43;4.40;;;2.03;;
27013;SDS011;14556;52.222;4.510;2023-06-14T06:50:10;2.83;;;1.97;;
27013;SDS011;14556;52.222;4.510;2023-06-14T06:52:36;4.90;;;1.77;;
27013;SDS011;14556;52.222;4.510;2023-06-14T06:55:03;7.33;;;2.07;;
27013;SDS011;14556;52.222;4.510;2023-06-14T06:57:29;2.93;;;1.73;;
27013;SDS011;14556;52.222;4.510;2023-06-14T06:59:56;3.07;;;1.90;;
27013;SDS011;14556;52.222;4.510;2023-06-14T07:02:24;3.43;;;1.80;;
27013;SDS011;14556;52.222;4.510;2023-06-14T07:04:51;5.70;;;2.03;;
27013;SDS011;14556;52.222;4.510;2023-06-14T07:07:17;2.53;;;1.80;;
27013;SDS011;14556;52.222;4.510;2023-06-14T07:09:44;2.00;;;1.73;;
27013;SDS011;14556;52.222;4.510;2023-06-14T07:12:12;2.97;;;2.03;;
27013;SDS011;14556;52.222;4.510;2023-06-14T07:14:38;2.90;;;1.83;;
27013;SDS011;14556;52.222;4.510;2023-06-14T07:17:05;3.73;;;2.00;;
27013;SDS011;14556;52.222;4.510;2023-06-14T07:19:32;3.87;;;1.80;;
27013;SDS011;14556;52.222;4.510;2023-06-14T07:21:59;3.30;;;1.97;;
27013;SDS011;14556;52.222;4.510;2023-06-14T07:24:25;10.00;;;3.17;;
27013;SDS011;14556;52.222;4.510;2023-06-14T07:26:52;2.53;;;1.87;;
27013;SDS011;14556;52.222;4.510;2023-06-14T07:29:19;3.03;;;2.20;;
27013;SDS011;14556;52.222;4.510;2023-06-14T07:31:47;3.97;;;1.83;;
27013;SDS011;14556;52.222;4.510;2023-06-14T07:34:14;6.77;;;1.93;;
27013;SDS011;14556;52.222;4.510;2023-06-14T07:36:41;4.40;;;1.70;;
27013;SDS011;14556;52.222;4.510;2023-06-14T07:39:10;2.90;;;2.00;;
27013;SDS011;14556;52.222;4.510;2023-06-14T07:41:37;4.10;;;2.40;;
27013;SDS011;14556;52.222;4.510;2023-06-14T07:44:04;3.27;;;1.67;;
27013;SDS011;14556;52.222;4.510;2023-06-14T07:46:30;2.33;;;1.90;;
27013;SDS011;14556;52.222;4.510;2023-06-14T07:48:57;2.30;;;1.70;;
27013;SDS011;14556;52.222;4.510;2023-06-14T07:51:24;3.87;;;1.90;;
27013;SDS011;14556;52.222;4.510;2023-06-14T07:53:50;4.67;;;2.00;;
27013;SDS011;14556;52.222;4.510;2023-06-14T07:56:17;3.73;;;1.80;;
27013;SDS011;14556;52.222;4.510;2023-06-14T07:58:43;3.70;;;2.40;;
27013;SDS011;14556;52.222;4.510;2023-06-14T08:01:10;5.43;;;2.50;;
27013;SDS011;14556;52.222;4.510;2023-06-14T08:03:37;3.50;;;2.10;;
27013;SDS011;14556;52.222;4.510;2023-06-14T08:06:04;2.40;;;1.70;;
27013;SDS011;14556;52.222;4.510;2023-06-14T08:08:31;4.47;;;2.10;;
27013;SDS011;14556;52.222;4.510;2023-06-14T08:10:57;4.97;;;2.37;;
27013;SDS011;14556;52.222;4.510;2023-06-14T08:13:24;2.40;;;1.63;;
27013;SDS011;14556;52.222;4.510;2023-06-14T08:15:51;6.93;;;2.20;;
27013;SDS011;14556;52.222;4.510;2023-06-14T08:18:18;2.10;;;1.90;;
27013;SDS011;14556;52.222;4.510;2023-06-14T08:20:44;2.20;;;1.87;;
27013;SDS011;14556;52.222;4.510;2023-06-14T08:23:11;3.07;;;2.17;;
27013;SDS011;14556;52.222;4.510;2023-06-14T08:25:37;2.70;;;2.03;;
27013;SDS011;14556;52.222;4.510;2023-06-14T08:28:04;3.80;;;2.20;;
27013;SDS011;14556;52.222;4.510;2023-06-14T08:30:31;4.87;;;1.93;;
27013;SDS011;14556;52.222;4.510;2023-06-14T08:32:57;4.73;;;2.20;;
27013;SDS011;14556;52.222;4.510;2023-06-14T08:35:39;2.90;;;2.03;;
27013;SDS011;14556;52.222;4.510;2023-06-14T08:38:06;5.27;;;2.23;;
27013;SDS011;14556;52.222;4.510;2023-06-14T08:40:33;3.40;;;2.00;;
27013;SDS011;14556;52.222;4.510;2023-06-14T08:43:04;5.03;;;2.17;;
27013;SDS011;14556;52.222;4.510;2023-06-14T08:45:30;7.23;;;2.10;;
27013;SDS011;14556;52.222;4.510;2023-06-14T08:47:58;3.10;;;1.73;;
27013;SDS011;14556;52.222;4.510;2023-06-14T08:50:26;3.33;;;2.20;;
27013;SDS011;14556;52.222;4.510;2023-06-14T08:52:59;4.50;;;2.60;;
27013;SDS011;14556;52.222;4.510;2023-06-14T08:55:28;3.47;;;2.30;;
27013;SDS011;14556;52.222;4.510;2023-06-14T08:57:59;4.83;;;1.73;;
27013;SDS011;14556;52.222;4.510;2023-06-14T09:00:26;2.67;;;2.20;;
27013;SDS011;14556;52.222;4.510;2023-06-14T09:02:54;3.40;;;2.00;;
27013;SDS011;14556;52.222;4.510;2023-06-14T09:05:24;3.10;;;2.13;;
27013;SDS011;14556;52.222;4.510;2023-06-14T09:07:52;3.63;;;2.37;;
27013;SDS011;14556;52.222;4.510;2023-06-14T09:10:21;8.20;;;2.10;;
27013;SDS011;14556;52.222;4.510;2023-06-14T09:12:48;3.83;;;2.53;;
27013;SDS011;14556;52.222;4.510;2023-06-14T09:15:15;4.57;;;2.33;;
27013;SDS011;14556;52.222;4.510;2023-06-14T09:17:42;4.77;;;1.97;;
27013;SDS011;14556;52.222;4.510;2023-06-14T09:20:09;3.50;;;1.90;;
27013;SDS011;14556;52.222;4.510;2023-06-14T09:22:37;3.73;;;1.77;;
27013;SDS011;14556;52.222;4.510;2023-06-14T09:25:04;5.40;;;2.00;;
27013;SDS011;14556;52.222;4.510;2023-06-14T09:27:32;3.67;;;1.80;;
27013;SDS011;14556;52.222;4.510;2023-06-14T09:30:04;2.90;;;2.10;;
27013;SDS011;14556;52.222;4.510;2023-06-14T09:32:31;2.10;;;1.90;;
27013;SDS011;14556;52.222;4.510;2023-06-14T09:35:06;3.37;;;2.17;;
27013;SDS011;14556;52.222;4.510;2023-06-14T09:37:34;3.53;;;1.87;;
27013;SDS011;14556;52.222;4.510;2023-06-14T09:40:01;2.90;;;2.07;;
27013;SDS011;14556;52.222;4.510;2023-06-14T09:42:29;4.60;;;2.00;;
27013;SDS011;14556;52.222;4.510;2023-06-14T09:44:57;2.47;;;1.90;;
27013;SDS011;14556;52.222;4.510;2023-06-14T09:47:23;3.00;;;1.83;;
27013;SDS011;14556;52.222;4.510;2023-06-14T09:49:51;3.13;;;1.83;;
27013;SDS011;14556;52.222;4.510;2023-06-14T09:52:21;2.37;;;1.77;;
27013;SDS011;14556;52.222;4.510;2023-06-14T09:54:49;3.77;;;2.00;;
27013;SDS011;14556;52.222;4.510;2023-06-14T09:57:17;2.80;;;1.70;;
27013;SDS011;14556;52.222;4.510;2023-06-14T09:59:48;2.90;;;1.53;;
27013;SDS011;14556;52.222;4.510;2023-06-14T10:02:21;2.03;;;1.40;;
27013;SDS011;14556;52.222;4.510;2023-06-14T10:05:04;2.77;;;1.43;;
27013;SDS011;14556;52.222;4.510;2023-06-14T10:07:35;2.23;;;1.40;;
27013;SDS011;14556;52.222;4.510;2023-06-14T10:10:06;1.93;;;1.57;;
27013;SDS011;14556;52.222;4.510;2023-06-14T10:12:34;2.30;;;1.40;;
27013;SDS011;14556;52.222;4.510;2023-06-14T10:15:00;2.07;;;1.37;;
27013;SDS011;14556;52.222;4.510;2023-06-14T10:17:38;1.90;;;1.37;;
27013;SDS011;14556;52.222;4.510;2023-06-14T10:23:08;1.30;;;1.20;;
27013;SDS011;14556;52.222;4.510;2023-06-14T10:25:39;2.00;;;1.40;;
27013;SDS011;14556;52.222;4.510;2023-06-14T10:28:19;1.77;;;1.30;;
27013;SDS011;14556;52.222;4.510;2023-06-14T10:31:02;2.30;;;1.50;;
27013;SDS011;14556;52.222;4.510;2023-06-14T10:33:32;4.33;;;1.30;;
27013;SDS011;14556;52.222;4.510;2023-06-14T10:38:56;1.23;;;1.13;;
27013;SDS011;14556;52.222;4.510;2023-06-14T10:41:27;2.27;;;1.30;;
27013;SDS011;14556;52.222;4.510;2023-06-14T10:46:40;3.10;;;1.43;;
27013;SDS011;14556;52.222;4.510;2023-06-14T10:49:12;3.40;;;1.27;;
27013;SDS011;14556;52.222;4.510;2023-06-14T10:51:49;2.35;;;1.50;;
27013;SDS011;14556;52.222;4.510;2023-06-14T10:54:17;2.70;;;1.57;;
27013;SDS011;14556;52.222;4.510;2023-06-14T10:56:47;2.87;;;1.40;;
27013;SDS011;14556;52.222;4.510;2023-06-14T10:59:15;2.70;;;1.50;;
27013;SDS011;14556;52.222;4.510;2023-06-14T11:04:20;3.30;;;1.37;;
27013;SDS011;14556;52.222;4.510;2023-06-14T11:06:59;1.93;;;1.13;;
27013;SDS011;14556;52.222;4.510;2023-06-14T11:12:36;2.13;;;1.30;;
27013;SDS011;14556;52.222;4.510;2023-06-14T11:15:05;2.03;;;1.30;;
27013;SDS011;14556;52.222;4.510;2023-06-14T11:17:32;1.73;;;1.50;;
27013;SDS011;14556;52.222;4.510;2023-06-14T11:20:12;1.80;;;0.93;;
27013;SDS011;14556;52.222;4.510;2023-06-14T11:22:45;1.45;;;0.93;;
27013;SDS011;14556;52.222;4.510;2023-06-14T11:25:13;3.43;;;1.43;;
27013;SDS011;14556;52.222;4.510;2023-06-14T11:27:44;4.00;;;1.03;;
27013;SDS011;14556;52.222;4.510;2023-06-14T11:30:13;7.38;;;2.10;;
27013;SDS011;14556;52.222;4.510;2023-06-14T11:32:40;2.53;;;1.20;;
27013;SDS011;14556;52.222;4.510;2023-06-14T11:35:07;1.85;;;1.33;;
27013;SDS011;14556;52.222;4.510;2023-06-14T11:37:35;1.93;;;1.40;;
27013;SDS011;14556;52.222;4.510;2023-06-14T11:40:07;1.97;;;1.10;;
27013;SDS011;14556;52.222;4.510;2023-06-14T11:42:36;1.63;;;1.23;;
27013;SDS011;14556;52.222;4.510;2023-06-14T11:45:03;1.15;;;1.05;;
27013;SDS011;14556;52.222;4.510;2023-06-14T11:47:35;1.20;;;1.10;;
27013;SDS011;14556;52.222;4.510;2023-06-14T11:50:03;1.50;;;1.20;;
27013;SDS011;14556;52.222;4.510;2023-06-14T11:52:32;2.17;;;1.15;;
27013;SDS011;14556;52.222;4.510;2023-06-14T11:54:59;1.80;;;1.30;;
27013;SDS011;14556;52.222;4.510;2023-06-14T11:57:25;1.35;;;1.20;;
27013;SDS011;14556;52.222;4.510;2023-06-14T11:59:52;2.50;;;1.30;;
27013;SDS011;14556;52.222;4.510;2023-06-14T12:02:21;1.15;;;0.95;;
27013;SDS011;14556;52.222;4.510;2023-06-14T12:04:50;2.58;;;1.30;;
27013;SDS011;14556;52.222;4.510;2023-06-14T12:07:17;2.53;;;1.27;;
27013;SDS011;14556;52.222;4.510;2023-06-14T12:12:25;1.45;;;1.10;;
27013;SDS011;14556;52.222;4.510;2023-06-14T12:14:53;3.10;;;1.23;;
27013;SDS011;14556;52.222;4.510;2023-06-14T12:17:22;1.20;;;1.10;;
27013;SDS011;14556;52.222;4.510;2023-06-14T12:19:49;1.70;;;1.17;;
27013;SDS011;14556;52.222;4.510;2023-06-14T12:22:16;2.50;;;1.10;;
27013;SDS011;14556;52.222;4.510;2023-06-14T12:24:46;1.13;;;1.00;;
27013;SDS011;14556;52.222;4.510;2023-06-14T12:27:13;2.58;;;1.10;;
27013;SDS011;14556;52.222;4.510;2023-06-14T12:29:42;1.88;;;1.13;;
27013;SDS011;14556;52.222;4.510;2023-06-14T12:32:11;2.22;;;1.30;;
27013;SDS011;14556;52.222;4.510;2023-06-14T12:34:38;2.05;;;1.23;;
27013;SDS011;14556;52.222;4.510;2023-06-14T12:37:04;2.65;;;1.30;;
27013;SDS011;14556;52.222;4.510;2023-06-14T12:39:32;1.63;;;1.10;;
27013;SDS011;14556;52.222;4.510;2023-06-14T12:42:02;1.20;;;1.10;;
27013;SDS011;14556;52.222;4.510;2023-06-14T12:44:30;1.90;;;1.20;;
27013;SDS011;14556;52.222;4.510;2023-06-14T12:46:59;1.90;;;1.30;;
27013;SDS011;14556;52.222;4.510;2023-06-14T12:49:26;2.58;;;1.23;;
27013;SDS011;14556;52.222;4.510;2023-06-14T12:51:53;2.20;;;1.25;;
27013;SDS011;14556;52.222;4.510;2023-06-14T12:54:19;1.33;;;1.20;;
27013;SDS011;14556;52.222;4.510;2023-06-14T12:57:05;1.48;;;1.20;;
27013;SDS011;14556;52.222;4.510;2023-06-14T12:59:32;3.38;;;1.35;;
27013;SDS011;14556;52.222;4.510;2023-06-14T13:02:09;1.52;;;1.42;;
27013;SDS011;14556;52.222;4.510;2023-06-14T13:04:39;1.60;;;1.20;;
27013;SDS011;14556;52.222;4.510;2023-06-14T13:07:05;1.40;;;1.30;;
27013;SDS011;14556;52.222;4.510;2023-06-14T13:09:32;1.20;;;1.10;;
27013;SDS011;14556;52.222;4.510;2023-06-14T13:12:01;1.27;;;1.00;;
27013;SDS011;14556;52.222;4.510;2023-06-14T13:14:28;1.07;;;1.00;;
27013;SDS011;14556;52.222;4.510;2023-06-14T13:16:54;2.95;;;1.20;;
27013;SDS011;14556;52.222;4.510;2023-06-14T13:19:22;1.20;;;1.10;;
27013;SDS011;14556;52.222;4.510;2023-06-14T13:21:48;1.38;;;1.08;;
27013;SDS011;14556;52.222;4.510;2023-06-14T13:24:15;1.33;;;0.93;;
27013;SDS011;14556;52.222;4.510;2023-06-14T13:26:42;3.88;;;1.27;;
27013;SDS011;14556;52.222;4.510;2023-06-14T13:29:09;4.50;;;1.35;;
27013;SDS011;14556;52.222;4.510;2023-06-14T13:31:35;1.58;;;1.27;;
27013;SDS011;14556;52.222;4.510;2023-06-14T13:34:02;1.75;;;1.20;;
27013;SDS011;14556;52.222;4.510;2023-06-14T13:36:29;1.90;;;1.40;;
27013;SDS011;14556;52.222;4.510;2023-06-14T13:38:56;1.75;;;1.35;;
27013;SDS011;14556;52.222;4.510;2023-06-14T13:41:25;2.10;;;1.15;;
27013;SDS011;14556;52.222;4.510;2023-06-14T13:44:00;1.10;;;1.00;;
27013;SDS011;14556;52.222;4.510;2023-06-14T13:46:30;1.70;;;1.42;;
27013;SDS011;14556;52.222;4.510;2023-06-14T13:48:57;1.65;;;1.20;;
27013;SDS011;14556;52.222;4.510;2023-06-14T13:51:28;1.15;;;0.98;;
27013;SDS011;14556;52.222;4.510;2023-06-14T13:53:55;2.15;;;1.08;;
27013;SDS011;14556;52.222;4.510;2023-06-14T13:56:22;1.35;;;1.20;;
27013;SDS011;14556;52.222;4.510;2023-06-14T13:58:50;1.48;;;1.20;;
27013;SDS011;14556;52.222;4.510;2023-06-14T14:01:18;3.80;;;1.42;;
27013;SDS011;14556;52.222;4.510;2023-06-14T14:03:46;2.78;;;1.20;;
27013;SDS011;14556;52.222;4.510;2023-06-14T14:06:14;3.63;;;1.20;;
27013;SDS011;14556;52.222;4.510;2023-06-14T14:08:41;4.65;;;1.20;;
27013;SDS011;14556;52.222;4.510;2023-06-14T14:11:08;1.35;;;1.00;;
27013;SDS011;14556;52.222;4.510;2023-06-14T14:13:35;1.52;;;1.20;;
27013;SDS011;14556;52.222;4.510;2023-06-14T14:16:05;1.08;;;0.90;;
27013;SDS011;14556;52.222;4.510;2023-06-14T14:18:32;6.28;;;1.40;;
27013;SDS011;14556;52.222;4.510;2023-06-14T14:20:59;1.77;;;1.10;;
27013;SDS011;14556;52.222;4.510;2023-06-14T14:23:26;1.60;;;0.90;;
27013;SDS011;14556;52.222;4.510;2023-06-14T14:25:53;1.17;;;1.00;;
27013;SDS011;14556;52.222;4.510;2023-06-14T14:28:20;1.58;;;1.30;;
27013;SDS011;14556;52.222;4.510;2023-06-14T14:30:47;2.13;;;1.40;;
27013;SDS011;14556;52.222;4.510;2023-06-14T14:33:14;2.53;;;1.00;;
27013;SDS011;14556;52.222;4.510;2023-06-14T14:35:44;1.55;;;0.98;;
27013;SDS011;14556;52.222;4.510;2023-06-14T14:38:15;1.60;;;1.25;;
27013;SDS011;14556;52.222;4.510;2023-06-14T14:40:42;1.50;;;1.23;;
27013;SDS011;14556;52.222;4.510;2023-06-14T14:43:10;2.93;;;1.10;;
27013;SDS011;14556;52.222;4.510;2023-06-14T14:45:37;1.27;;;1.10;;
27013;SDS011;14556;52.222;4.510;2023-06-14T14:48:03;1.15;;;0.98;;
27013;SDS011;14556;52.222;4.510;2023-06-14T14:50:30;1.80;;;1.30;;
27013;SDS011;14556;52.222;4.510;2023-06-14T14:52:56;1.90;;;0.98;;
27013;SDS011;14556;52.222;4.510;2023-06-14T14:55:23;3.78;;;1.30;;
27013;SDS011;14556;52.222;4.510;2023-06-14T14:57:49;2.30;;;1.30;;
27013;SDS011;14556;52.222;4.510;2023-06-14T15:00:16;3.70;;;1.10;;
27013;SDS011;14556;52.222;4.510;2023-06-14T15:02:43;2.17;;;1.20;;
27013;SDS011;14556;52.222;4.510;2023-06-14T15:05:10;1.50;;;1.30;;
27013;SDS011;14556;52.222;4.510;2023-06-14T15:07:37;2.37;;;1.10;;
27013;SDS011;14556;52.222;4.510;2023-06-14T15:10:05;2.83;;;1.40;;